createdAt,value
2023-03-18T00:00:50.499Z,0.00
2023-03-18T00:01:50.468Z,0.00
2023-03-18T00:02:50.453Z,0.00
2023-03-18T00:03:50.553Z,0.00
2023-03-18T00:04:50.387Z,0.00
2023-03-18T00:05:50.364Z,0.00
2023-03-18T00:06:50.339Z,0.00
2023-03-18T00:07:50.419Z,0.00
2023-03-18T00:08:50.305Z,0.00
2023-03-18T00:09:50.298Z,0.00
2023-03-18T00:10:50.245Z,0.00
2023-03-18T00:11:50.224Z,0.00
2023-03-18T00:12:50.198Z,0.00
2023-03-18T00:13:50.189Z,0.00
2023-03-18T00:14:50.156Z,0.00
2023-03-18T00:15:50.159Z,0.00
2023-03-18T00:16:50.109Z,0.00
2023-03-18T00:17:50.076Z,0.00
2023-03-18T00:18:50.068Z,0.00
2023-03-18T00:19:50.034Z,0.00
2023-03-18T00:20:50.025Z,0.00
2023-03-18T00:21:49.994Z,0.00
2023-03-18T00:22:49.973Z,0.00
2023-03-18T00:23:49.933Z,0.00
2023-03-18T00:24:49.928Z,0.00
2023-03-18T00:25:49.909Z,0.00
2023-03-18T00:26:49.871Z,0.00
2023-03-18T00:27:49.844Z,0.00
2023-03-18T00:28:49.824Z,0.00
2023-03-18T00:29:49.798Z,0.00
2023-03-18T00:30:49.776Z,0.00
2023-03-18T00:31:49.746Z,0.00
2023-03-18T00:32:49.797Z,0.00
2023-03-18T00:33:49.703Z,0.00
2023-03-18T00:34:49.680Z,0.00
2023-03-18T00:35:49.701Z,0.00
2023-03-18T00:36:49.647Z,0.00
2023-03-18T00:37:49.605Z,0.00
2023-03-18T00:38:49.606Z,0.00
2023-03-18T00:39:49.555Z,0.00
2023-03-18T00:40:49.545Z,0.00
2023-03-18T00:41:49.532Z,0.00
2023-03-18T00:42:49.493Z,0.00
2023-03-18T00:43:49.503Z,0.00
2023-03-18T00:44:49.440Z,0.00
2023-03-18T00:45:49.417Z,0.00
2023-03-18T00:46:49.434Z,0.00
2023-03-18T00:47:49.368Z,0.00
2023-03-18T00:48:49.344Z,0.00
2023-03-18T00:49:49.325Z,0.00
2023-03-18T00:50:49.300Z,0.00
2023-03-18T00:51:49.278Z,0.00
2023-03-18T00:52:49.251Z,0.00
2023-03-18T00:53:49.226Z,0.00
2023-03-18T00:54:49.208Z,0.00
2023-03-18T00:55:49.178Z,0.00
2023-03-18T00:56:49.168Z,0.00
2023-03-18T00:57:49.172Z,0.00
2023-03-18T00:58:49.106Z,0.00
2023-03-18T00:59:49.080Z,0.00
2023-03-18T01:00:49.136Z,0.00
2023-03-18T01:01:49.072Z,0.00
2023-03-18T01:02:49.021Z,0.00
2023-03-18T01:03:48.982Z,0.00
2023-03-18T01:04:48.968Z,0.00
2023-03-18T01:05:48.943Z,0.00
2023-03-18T01:06:48.939Z,0.00
2023-03-18T01:07:48.894Z,0.00
2023-03-18T01:08:48.869Z,0.00
2023-03-18T01:09:48.860Z,0.00
2023-03-18T01:10:48.841Z,0.00
2023-03-18T01:11:48.796Z,0.00
2023-03-18T01:12:48.779Z,0.00
2023-03-18T01:13:48.783Z,0.00
2023-03-18T01:14:48.733Z,0.00
2023-03-18T01:15:48.700Z,0.00
2023-03-18T01:16:48.726Z,0.00
2023-03-18T01:17:48.658Z,0.00
2023-03-18T01:18:48.637Z,0.00
2023-03-18T01:19:48.603Z,0.00
2023-03-18T01:20:48.579Z,0.00
2023-03-18T01:21:48.558Z,0.00
2023-03-18T01:22:48.545Z,0.00
2023-03-18T01:23:48.505Z,0.00
2023-03-18T01:24:48.495Z,0.00
2023-03-18T01:25:48.494Z,0.00
2023-03-18T01:26:48.435Z,0.00
2023-03-18T01:27:48.420Z,0.00
2023-03-18T01:28:48.398Z,0.00
2023-03-18T01:29:48.388Z,0.00
2023-03-18T01:30:48.351Z,0.00
2023-03-18T01:31:48.351Z,0.00
2023-03-18T01:32:48.305Z,0.00
2023-03-18T01:33:48.275Z,0.00
2023-03-18T01:34:48.259Z,0.00
2023-03-18T01:35:48.237Z,0.00
2023-03-18T01:36:48.200Z,0.00
2023-03-18T01:37:48.170Z,0.00
2023-03-18T01:38:48.171Z,0.00
2023-03-18T01:39:48.124Z,0.00
2023-03-18T01:40:48.102Z,0.00
2023-03-18T01:41:48.078Z,0.00
2023-03-18T01:42:48.050Z,0.00
2023-03-18T01:43:48.024Z,0.00
2023-03-18T01:44:48.009Z,0.00
2023-03-18T01:45:48.103Z,0.00
2023-03-18T01:46:47.959Z,0.00
2023-03-18T01:47:47.940Z,0.00
2023-03-18T01:48:47.918Z,0.00
2023-03-18T01:49:47.886Z,0.00
2023-03-18T01:50:47.862Z,0.00
2023-03-18T01:51:47.842Z,0.00
2023-03-18T01:52:47.810Z,0.00
2023-03-18T01:53:47.789Z,0.00
2023-03-18T01:54:47.764Z,0.00
2023-03-18T01:55:47.742Z,0.00
2023-03-18T01:56:47.721Z,0.00
2023-03-18T01:57:47.687Z,0.00
2023-03-18T01:58:47.675Z,0.00
2023-03-18T01:59:47.645Z,0.00
2023-03-18T02:00:47.674Z,0.00
2023-03-18T02:01:47.614Z,0.00
2023-03-18T02:02:47.569Z,0.00
2023-03-18T02:03:47.547Z,0.00
2023-03-18T02:04:47.525Z,0.00
2023-03-18T02:05:47.505Z,0.00
2023-03-18T02:06:47.476Z,0.00
2023-03-18T02:07:47.449Z,0.00
2023-03-18T02:08:47.434Z,0.00
2023-03-18T02:09:47.413Z,0.00
2023-03-18T02:10:47.378Z,0.00
2023-03-18T02:11:47.359Z,0.00
2023-03-18T02:12:47.338Z,0.00
2023-03-18T02:13:47.305Z,0.00
2023-03-18T02:14:47.293Z,0.00
2023-03-18T02:15:47.260Z,0.00
2023-03-18T02:16:47.293Z,0.00
2023-03-18T02:17:47.233Z,0.00
2023-03-18T02:18:47.191Z,0.00
2023-03-18T02:19:47.168Z,0.00
2023-03-18T02:20:47.144Z,0.00
2023-03-18T02:21:47.121Z,0.00
2023-03-18T02:22:47.090Z,0.00
2023-03-18T02:23:47.064Z,0.00
2023-03-18T02:24:47.056Z,0.00
2023-03-18T02:25:47.049Z,0.00
2023-03-18T02:26:47.001Z,0.00
2023-03-18T02:27:46.972Z,0.00
2023-03-18T02:28:46.952Z,0.00
2023-03-18T02:29:46.921Z,0.00
2023-03-18T02:30:46.930Z,0.00
2023-03-18T02:31:46.880Z,0.00
2023-03-18T02:32:46.983Z,0.00
2023-03-18T02:33:46.844Z,0.00
2023-03-18T02:34:46.814Z,0.00
2023-03-18T02:35:46.821Z,0.00
2023-03-18T02:36:46.762Z,0.00
2023-03-18T02:37:46.742Z,0.00
2023-03-18T02:38:46.705Z,0.00
2023-03-18T02:39:46.691Z,0.00
2023-03-18T02:40:46.660Z,0.00
2023-03-18T02:41:46.632Z,0.00
2023-03-18T02:42:46.610Z,0.00
2023-03-18T02:43:46.586Z,0.00
2023-03-18T02:44:46.564Z,0.00
2023-03-18T02:45:46.562Z,0.00
2023-03-18T02:46:46.519Z,0.00
2023-03-18T02:47:46.495Z,0.00
2023-03-18T02:48:46.473Z,0.00
2023-03-18T02:49:46.458Z,0.00
2023-03-18T02:50:46.425Z,0.00
2023-03-18T02:51:46.406Z,0.00
2023-03-18T02:52:46.377Z,0.00
2023-03-18T02:53:46.349Z,0.00
2023-03-18T02:54:46.338Z,0.00
2023-03-18T02:55:46.303Z,0.00
2023-03-18T02:56:46.280Z,0.00
2023-03-18T02:57:46.282Z,0.00
2023-03-18T02:58:46.228Z,0.00
2023-03-18T02:59:46.209Z,0.00
2023-03-18T03:00:46.185Z,0.00
2023-03-18T03:01:46.281Z,0.00
2023-03-18T03:02:46.359Z,0.00
2023-03-18T03:03:46.106Z,0.00
2023-03-18T03:04:46.090Z,0.00
2023-03-18T03:05:46.090Z,0.00
2023-03-18T03:06:46.048Z,0.00
2023-03-18T03:07:46.025Z,0.00
2023-03-18T03:08:45.994Z,0.00
2023-03-18T03:09:45.970Z,0.00
2023-03-18T03:10:45.951Z,0.00
2023-03-18T03:11:45.929Z,0.00
2023-03-18T03:12:45.905Z,0.00
2023-03-18T03:13:45.873Z,0.00
2023-03-18T03:14:45.849Z,0.00
2023-03-18T03:15:45.869Z,0.00
2023-03-18T03:16:45.806Z,0.00
2023-03-18T03:17:45.776Z,0.00
2023-03-18T03:18:45.764Z,0.00
2023-03-18T03:19:45.731Z,0.00
2023-03-18T03:20:45.710Z,0.00
2023-03-18T03:21:45.715Z,0.00
2023-03-18T03:22:45.670Z,0.00
2023-03-18T03:23:45.634Z,0.00
2023-03-18T03:24:45.610Z,0.00
2023-03-18T03:25:45.589Z,0.00
2023-03-18T03:26:45.558Z,0.00
2023-03-18T03:27:45.547Z,0.00
2023-03-18T03:28:45.514Z,0.00
2023-03-18T03:29:45.487Z,0.00
2023-03-18T03:30:45.604Z,0.00
2023-03-18T03:31:45.435Z,0.00
2023-03-18T03:32:45.468Z,0.00
2023-03-18T03:33:45.404Z,0.00
2023-03-18T03:34:45.367Z,0.00
2023-03-18T03:35:45.413Z,0.00
2023-03-18T03:36:45.334Z,0.00
2023-03-18T03:37:45.355Z,0.00
2023-03-18T03:38:45.281Z,0.00
2023-03-18T03:39:45.259Z,0.00
2023-03-18T03:40:45.225Z,0.00
2023-03-18T03:41:45.196Z,0.00
2023-03-18T03:42:45.174Z,0.00
2023-03-18T03:43:45.154Z,0.00
2023-03-18T03:44:45.131Z,0.00
2023-03-18T03:45:45.104Z,0.00
2023-03-18T03:46:45.118Z,0.00
2023-03-18T03:47:45.057Z,0.00
2023-03-18T03:48:45.033Z,0.00
2023-03-18T03:49:45.012Z,0.00
2023-03-18T03:50:44.989Z,0.00
2023-03-18T03:51:44.972Z,0.00
2023-03-18T03:52:44.941Z,0.00
2023-03-18T03:53:44.931Z,0.00
2023-03-18T03:54:44.888Z,0.00
2023-03-18T03:55:44.860Z,0.00
2023-03-18T03:56:44.844Z,0.00
2023-03-18T03:57:44.826Z,0.00
2023-03-18T03:58:44.796Z,0.00
2023-03-18T03:59:44.769Z,0.00
2023-03-18T04:00:44.746Z,0.00
2023-03-18T04:01:44.732Z,0.00
2023-03-18T04:02:44.778Z,0.00
2023-03-18T04:03:44.718Z,0.00
2023-03-18T04:04:44.659Z,0.00
2023-03-18T04:05:44.625Z,0.00
2023-03-18T04:06:44.604Z,0.00
2023-03-18T04:07:45.583Z,0.00
2023-03-18T04:08:44.553Z,0.00
2023-03-18T04:09:44.546Z,0.00
2023-03-18T04:10:44.508Z,0.00
2023-03-18T04:11:44.476Z,0.00
2023-03-18T04:12:44.455Z,0.00
2023-03-18T04:13:44.424Z,0.00
2023-03-18T04:14:44.414Z,0.00
2023-03-18T04:15:44.453Z,0.00
2023-03-18T04:16:44.373Z,0.00
2023-03-18T04:17:44.335Z,0.00
2023-03-18T04:18:44.306Z,0.00
2023-03-18T04:19:44.315Z,0.00
2023-03-18T04:20:44.264Z,0.00
2023-03-18T04:21:44.249Z,0.00
2023-03-18T04:22:44.214Z,0.00
2023-03-18T04:23:44.184Z,0.00
2023-03-18T04:24:44.169Z,0.00
2023-03-18T04:25:44.157Z,0.00
2023-03-18T04:26:44.118Z,0.00
2023-03-18T04:27:44.102Z,0.00
2023-03-18T04:28:44.067Z,0.00
2023-03-18T04:29:44.044Z,0.00
2023-03-18T04:30:44.015Z,0.00
2023-03-18T04:31:44.013Z,0.00
2023-03-18T04:32:44.044Z,0.00
2023-03-18T04:33:43.946Z,0.00
2023-03-18T04:34:43.918Z,0.00
2023-03-18T04:35:43.919Z,0.00
2023-03-18T04:36:43.878Z,0.00
2023-03-18T04:37:43.850Z,0.00
2023-03-18T04:38:43.821Z,0.00
2023-03-18T04:39:43.810Z,0.00
2023-03-18T04:40:43.780Z,0.00
2023-03-18T04:41:43.773Z,0.00
2023-03-18T04:42:43.728Z,0.00
2023-03-18T04:43:43.704Z,0.00
2023-03-18T04:44:43.676Z,0.00
2023-03-18T04:45:43.661Z,0.00
2023-03-18T04:46:43.721Z,0.00
2023-03-18T04:47:43.607Z,0.00
2023-03-18T04:48:43.601Z,0.00
2023-03-18T04:49:43.561Z,0.00
2023-03-18T04:50:43.550Z,0.00
2023-03-18T04:51:43.513Z,0.00
2023-03-18T04:52:43.489Z,0.00
2023-03-18T04:53:43.474Z,0.00
2023-03-18T04:54:43.442Z,0.00
2023-03-18T04:55:43.413Z,0.00
2023-03-18T04:56:43.389Z,0.00
2023-03-18T04:57:43.389Z,0.00
2023-03-18T04:58:43.338Z,0.00
2023-03-18T04:59:43.322Z,0.00
2023-03-18T05:00:43.362Z,0.00
2023-03-18T05:01:43.286Z,0.00
2023-03-18T05:02:43.243Z,0.00
2023-03-18T05:03:43.241Z,0.00
2023-03-18T05:04:43.203Z,0.00
2023-03-18T05:05:43.176Z,0.00
2023-03-18T05:06:43.147Z,0.00
2023-03-18T05:07:43.132Z,0.00
2023-03-18T05:08:43.101Z,0.00
2023-03-18T05:09:43.079Z,0.00
2023-03-18T05:10:43.055Z,0.00
2023-03-18T05:11:43.038Z,0.00
2023-03-18T05:12:43.005Z,0.00
2023-03-18T05:13:43.004Z,0.00
2023-03-18T05:14:42.968Z,0.00
2023-03-18T05:15:42.938Z,0.00
2023-03-18T05:16:42.986Z,0.00
2023-03-18T05:17:42.896Z,0.00
2023-03-18T05:18:42.856Z,0.00
2023-03-18T05:19:42.838Z,0.00
2023-03-18T05:20:42.812Z,0.00
2023-03-18T05:21:42.788Z,0.00
2023-03-18T05:22:42.778Z,0.00
2023-03-18T05:23:42.749Z,0.00
2023-03-18T05:24:42.714Z,0.00
2023-03-18T05:25:42.694Z,0.00
2023-03-18T05:26:42.667Z,0.00
2023-03-18T05:27:42.652Z,0.00
2023-03-18T05:28:42.616Z,0.00
2023-03-18T05:29:42.629Z,0.00
2023-03-18T05:30:42.571Z,0.00
2023-03-18T05:31:42.609Z,0.00
2023-03-18T05:32:42.546Z,0.00
2023-03-18T05:33:42.507Z,0.00
2023-03-18T05:34:42.489Z,0.00
2023-03-18T05:35:42.549Z,0.00
2023-03-18T05:36:42.425Z,0.00
2023-03-18T05:37:42.413Z,0.00
2023-03-18T05:38:42.395Z,0.00
2023-03-18T05:39:44.734Z,0.00
2023-03-18T05:40:42.336Z,0.00
2023-03-18T05:41:42.315Z,0.00
2023-03-18T05:42:55.383Z,0.00
2023-03-18T05:43:42.276Z,0.00
2023-03-18T05:44:42.285Z,0.00
2023-03-18T05:45:42.297Z,0.00
2023-03-18T05:46:42.182Z,0.00
2023-03-18T05:47:42.160Z,0.00
2023-03-18T05:48:42.136Z,0.00
2023-03-18T05:49:42.114Z,0.00
2023-03-18T05:50:42.097Z,0.00
2023-03-18T05:51:42.069Z,0.00
2023-03-18T05:52:42.036Z,0.00
2023-03-18T05:53:42.016Z,0.00
2023-03-18T05:54:41.992Z,0.00
2023-03-18T05:55:41.970Z,0.00
2023-03-18T05:56:41.947Z,0.00
2023-03-18T05:57:41.926Z,0.00
2023-03-18T05:58:41.912Z,0.00
2023-03-18T05:59:41.880Z,0.00
2023-03-18T06:00:41.850Z,0.00
2023-03-18T06:01:41.850Z,0.00
2023-03-18T06:02:41.823Z,0.00
2023-03-18T06:03:41.844Z,0.00
2023-03-18T06:04:41.755Z,0.00
2023-03-18T06:05:41.732Z,0.00
2023-03-18T06:06:41.717Z,0.00
2023-03-18T06:07:41.704Z,0.00
2023-03-18T06:08:41.682Z,0.00
2023-03-18T06:09:41.642Z,0.00
2023-03-18T06:10:41.616Z,0.00
2023-03-18T06:11:41.595Z,0.00
2023-03-18T06:12:41.566Z,0.00
2023-03-18T06:13:41.543Z,0.00
2023-03-18T06:14:41.515Z,0.00
2023-03-18T06:15:41.498Z,0.00
2023-03-18T06:16:41.494Z,0.00
2023-03-18T06:17:41.468Z,0.00
2023-03-18T06:18:41.428Z,0.00
2023-03-18T06:19:41.400Z,0.00
2023-03-18T06:20:41.369Z,0.00
2023-03-18T06:21:41.352Z,0.00
2023-03-18T06:22:41.329Z,0.00
2023-03-18T06:23:41.301Z,5.63
2023-03-18T06:24:41.282Z,5.63
2023-03-18T06:25:41.277Z,0.00
2023-03-18T06:26:41.221Z,0.00
2023-03-18T06:27:41.222Z,0.00
2023-03-18T06:28:41.196Z,0.00
2023-03-18T06:29:41.153Z,0.00
2023-03-18T06:30:41.123Z,0.00
2023-03-18T06:31:41.112Z,0.00
2023-03-18T06:32:41.126Z,0.00
2023-03-18T06:33:41.086Z,0.00
2023-03-18T06:34:41.039Z,0.00
2023-03-18T06:35:41.036Z,0.00
2023-03-18T06:36:40.984Z,0.00
2023-03-18T06:37:40.962Z,0.00
2023-03-18T06:38:40.937Z,0.00
2023-03-18T06:39:41.398Z,0.00
2023-03-18T06:40:40.888Z,0.00
2023-03-18T06:41:40.866Z,0.00
2023-03-18T06:42:40.846Z,0.00
2023-03-18T06:43:40.817Z,0.00
2023-03-18T06:44:40.790Z,0.00
2023-03-18T06:45:40.772Z,0.00
2023-03-18T06:46:43.668Z,0.00
2023-03-18T06:47:40.724Z,0.00
2023-03-18T06:48:40.701Z,0.00
2023-03-18T06:49:40.700Z,0.00
2023-03-18T06:50:40.655Z,0.00
2023-03-18T06:51:40.628Z,0.00
2023-03-18T06:52:40.603Z,0.00
2023-03-18T06:53:40.577Z,0.00
2023-03-18T06:54:40.560Z,0.00
2023-03-18T06:55:40.529Z,0.00
2023-03-18T06:56:40.505Z,0.00
2023-03-18T06:57:40.492Z,0.00
2023-03-18T06:58:40.458Z,0.00
2023-03-18T06:59:40.440Z,0.00
2023-03-18T07:00:40.451Z,0.00
2023-03-18T07:01:40.444Z,5.63
2023-03-18T07:02:40.359Z,0.00
2023-03-18T07:03:40.352Z,0.00
2023-03-18T07:04:40.318Z,0.00
2023-03-18T07:05:40.325Z,0.00
2023-03-18T07:06:40.260Z,0.00
2023-03-18T07:07:40.249Z,0.00
2023-03-18T07:08:40.215Z,0.00
2023-03-18T07:09:40.189Z,0.00
2023-03-18T07:10:40.162Z,0.00
2023-03-18T07:11:40.141Z,0.00
2023-03-18T07:12:40.114Z,0.00
2023-03-18T07:13:40.098Z,0.00
2023-03-18T07:14:40.069Z,0.00
2023-03-18T07:15:40.129Z,0.00
2023-03-18T07:16:40.031Z,0.00
2023-03-18T07:17:40.000Z,0.00
2023-03-18T07:18:39.972Z,0.00
2023-03-18T07:19:39.949Z,0.00
2023-03-18T07:20:39.928Z,0.00
2023-03-18T07:21:39.927Z,0.00
2023-03-18T07:22:39.875Z,0.00
2023-03-18T07:23:39.861Z,0.00
2023-03-18T07:24:39.824Z,0.00
2023-03-18T07:25:39.825Z,0.00
2023-03-18T07:26:39.779Z,0.00
2023-03-18T07:27:39.768Z,0.00
2023-03-18T07:28:39.731Z,0.00
2023-03-18T07:29:39.736Z,0.00
2023-03-18T07:30:39.687Z,0.00
2023-03-18T07:31:39.884Z,0.00
2023-03-18T07:32:39.755Z,0.00
2023-03-18T07:33:39.621Z,0.00
2023-03-18T07:34:39.582Z,0.00
2023-03-18T07:35:39.686Z,0.00
2023-03-18T07:36:39.547Z,0.00
2023-03-18T07:37:39.536Z,0.00
2023-03-18T07:38:39.489Z,5.63
2023-03-18T07:39:39.475Z,5.63
2023-03-18T07:40:39.441Z,5.63
2023-03-18T07:41:39.425Z,5.63
2023-03-18T07:42:39.402Z,5.63
2023-03-18T07:43:39.373Z,5.63
2023-03-18T07:44:39.354Z,5.63
2023-03-18T07:45:39.447Z,5.63
2023-03-18T07:46:39.405Z,5.63
2023-03-18T07:47:39.281Z,5.63
2023-03-18T07:48:39.249Z,5.63
2023-03-18T07:49:39.227Z,11.25
2023-03-18T07:50:39.204Z,11.25
2023-03-18T07:51:39.193Z,11.25
2023-03-18T07:52:39.162Z,11.25
2023-03-18T07:53:39.182Z,11.25
2023-03-18T07:54:39.109Z,16.88
2023-03-18T07:55:39.105Z,16.88
2023-03-18T07:56:39.064Z,11.25
2023-03-18T07:57:39.054Z,11.25
2023-03-18T07:58:39.013Z,11.25
2023-03-18T07:59:39.008Z,16.88
2023-03-18T08:00:38.973Z,11.25
2023-03-18T08:01:38.944Z,11.25
2023-03-18T08:02:38.911Z,16.88
2023-03-18T08:03:38.949Z,11.25
2023-03-18T08:04:38.909Z,11.25
2023-03-18T08:05:38.853Z,11.25
2023-03-18T08:06:38.819Z,11.25
2023-03-18T08:07:38.795Z,16.88
2023-03-18T08:08:38.768Z,22.50
2023-03-18T08:09:38.774Z,16.88
2023-03-18T08:10:38.734Z,16.88
2023-03-18T08:11:38.718Z,16.88
2023-03-18T08:12:52.157Z,16.88
2023-03-18T08:13:38.697Z,22.50
2023-03-18T08:14:38.632Z,22.50
2023-03-18T08:15:38.610Z,16.88
2023-03-18T08:16:38.660Z,16.88
2023-03-18T08:17:38.558Z,16.88
2023-03-18T08:18:38.529Z,11.25
2023-03-18T08:19:38.506Z,11.25
2023-03-18T08:20:38.487Z,11.25
2023-03-18T08:21:38.475Z,11.25
2023-03-18T08:22:38.448Z,11.25
2023-03-18T08:23:38.421Z,11.25
2023-03-18T08:24:38.400Z,11.25
2023-03-18T08:25:38.390Z,11.25
2023-03-18T08:26:38.338Z,11.25
2023-03-18T08:27:38.318Z,11.25
2023-03-18T08:28:38.304Z,5.63
2023-03-18T08:29:38.286Z,5.63
2023-03-18T08:30:38.249Z,5.63
2023-03-18T08:31:38.251Z,11.25
2023-03-18T08:32:38.398Z,11.25
2023-03-18T08:33:38.181Z,11.25
2023-03-18T08:34:38.152Z,11.25
2023-03-18T08:35:38.169Z,16.88
2023-03-18T08:36:38.128Z,16.88
2023-03-18T08:37:38.084Z,16.88
2023-03-18T08:38:38.055Z,16.88
2023-03-18T08:39:38.029Z,11.25
2023-03-18T08:40:38.008Z,11.25
2023-03-18T08:41:38.016Z,11.25
2023-03-18T08:42:37.959Z,11.25
2023-03-18T08:43:39.087Z,11.25
2023-03-18T08:44:37.917Z,11.25
2023-03-18T08:45:38.070Z,11.25
2023-03-18T08:46:37.877Z,11.25
2023-03-18T08:47:37.848Z,11.25
2023-03-18T08:48:37.822Z,11.25
2023-03-18T08:49:37.791Z,11.25
2023-03-18T08:50:37.796Z,11.25
2023-03-18T08:51:37.753Z,16.88
2023-03-18T08:52:37.735Z,16.88
2023-03-18T08:53:37.727Z,16.88
2023-03-18T08:54:37.684Z,16.88
2023-03-18T08:55:37.655Z,16.88
2023-03-18T08:56:37.634Z,16.88
2023-03-18T08:57:37.644Z,16.88
2023-03-18T08:58:37.586Z,16.88
2023-03-18T08:59:37.566Z,16.88
2023-03-18T09:00:37.545Z,16.88
2023-03-18T09:01:37.633Z,16.88
2023-03-18T09:02:37.494Z,16.88
2023-03-18T09:03:37.570Z,16.88
2023-03-18T09:04:37.446Z,22.50
2023-03-18T09:05:37.417Z,22.50
2023-03-18T09:06:37.401Z,22.50
2023-03-18T09:07:37.381Z,22.50
2023-03-18T09:08:37.356Z,22.50
2023-03-18T09:09:43.147Z,28.13
2023-03-18T09:10:37.305Z,28.13
2023-03-18T09:11:37.277Z,22.50
2023-03-18T09:12:37.261Z,28.13
2023-03-18T09:13:39.054Z,28.13
2023-03-18T09:14:37.223Z,28.13
2023-03-18T09:15:37.197Z,28.13
2023-03-18T09:16:37.179Z,22.50
2023-03-18T09:17:53.440Z,16.88
2023-03-18T09:18:37.120Z,28.13
2023-03-18T09:19:37.094Z,22.50
2023-03-18T09:20:37.073Z,28.13
2023-03-18T09:21:37.039Z,22.50
2023-03-18T09:22:37.022Z,28.13
2023-03-18T09:23:36.998Z,28.13
2023-03-18T09:24:36.975Z,11.25
2023-03-18T09:25:36.947Z,28.13
2023-03-18T09:26:36.944Z,28.13
2023-03-18T09:27:36.905Z,28.13
2023-03-18T09:28:36.888Z,16.88
2023-03-18T09:29:36.878Z,22.50
2023-03-18T09:30:37.040Z,28.13
2023-03-18T09:31:36.808Z,28.13
2023-03-18T09:32:36.845Z,33.75
2023-03-18T09:33:36.764Z,39.38
2023-03-18T09:34:36.742Z,39.38
2023-03-18T09:35:36.818Z,45.00
2023-03-18T09:36:36.690Z,45.00
2023-03-18T09:37:36.669Z,45.00
2023-03-18T09:38:36.663Z,45.00
2023-03-18T09:39:36.627Z,45.00
2023-03-18T09:40:38.258Z,45.00
2023-03-18T09:41:36.574Z,39.38
2023-03-18T09:42:36.554Z,50.63
2023-03-18T09:43:36.533Z,50.63
2023-03-18T09:44:36.508Z,50.63
2023-03-18T09:45:36.500Z,50.63
2023-03-18T09:46:36.661Z,39.38
2023-03-18T09:47:36.430Z,39.38
2023-03-18T09:48:36.410Z,39.38
2023-03-18T09:49:36.386Z,45.00
2023-03-18T09:50:36.371Z,45.00
2023-03-18T09:51:36.347Z,50.63
2023-03-18T09:52:36.331Z,50.63
2023-03-18T09:53:36.309Z,50.63
2023-03-18T09:54:36.276Z,50.63
2023-03-18T09:55:36.247Z,50.63
2023-03-18T09:56:36.237Z,22.50
2023-03-18T09:57:36.203Z,45.00
2023-03-18T09:58:36.187Z,16.88
2023-03-18T09:59:36.165Z,45.00
2023-03-18T10:00:36.137Z,16.88
2023-03-18T10:01:36.230Z,16.88
2023-03-18T10:02:36.097Z,11.25
2023-03-18T10:03:36.185Z,11.25
2023-03-18T10:04:36.049Z,28.13
2023-03-18T10:05:36.022Z,16.88
2023-03-18T10:06:36.018Z,50.63
2023-03-18T10:07:35.975Z,22.50
2023-03-18T10:08:36.464Z,16.88
2023-03-18T10:09:35.931Z,16.88
2023-03-18T10:10:35.927Z,16.88
2023-03-18T10:11:35.892Z,16.88
2023-03-18T10:12:35.863Z,16.88
2023-03-18T10:13:35.837Z,39.38
2023-03-18T10:14:36.445Z,39.38
2023-03-18T10:15:36.212Z,39.38
2023-03-18T10:16:35.791Z,39.38
2023-03-18T10:17:35.780Z,39.38
2023-03-18T10:18:35.730Z,39.38
2023-03-18T10:19:35.700Z,39.38
2023-03-18T10:20:35.703Z,39.38
2023-03-18T10:21:35.667Z,39.38
2023-03-18T10:22:35.636Z,39.38
2023-03-18T10:23:35.612Z,45.00
2023-03-18T10:24:35.595Z,45.00
2023-03-18T10:25:35.572Z,45.00
2023-03-18T10:26:35.549Z,45.00
2023-03-18T10:27:35.548Z,45.00
2023-03-18T10:28:35.508Z,22.50
2023-03-18T10:29:35.480Z,28.13
2023-03-18T10:30:35.477Z,39.38
2023-03-18T10:31:35.557Z,28.13
2023-03-18T10:32:48.726Z,28.13
2023-03-18T10:33:35.409Z,45.00
2023-03-18T10:34:35.374Z,50.63
2023-03-18T10:35:35.723Z,33.75
2023-03-18T10:36:35.337Z,33.75
2023-03-18T10:37:35.337Z,45.00
2023-03-18T10:38:35.281Z,16.88
2023-03-18T10:39:35.260Z,16.88
2023-03-18T10:40:35.236Z,39.38
2023-03-18T10:41:35.211Z,16.88
2023-03-18T10:42:35.189Z,16.88
2023-03-18T10:43:35.165Z,33.75
2023-03-18T10:44:35.161Z,11.25
2023-03-18T10:45:35.255Z,11.25
2023-03-18T10:46:35.169Z,11.25
2023-03-18T10:47:35.154Z,5.63
2023-03-18T10:48:35.063Z,5.63
2023-03-18T10:49:35.064Z,5.63
2023-03-18T10:50:35.484Z,11.25
2023-03-18T10:51:34.987Z,11.25
2023-03-18T10:52:34.967Z,11.25
2023-03-18T10:53:34.940Z,16.88
2023-03-18T10:54:34.924Z,22.50
2023-03-18T10:55:34.900Z,22.50
2023-03-18T10:56:34.879Z,28.13
2023-03-18T10:57:34.855Z,33.75
2023-03-18T10:58:34.834Z,45.00
2023-03-18T10:59:34.805Z,45.00
2023-03-18T11:00:35.386Z,50.63
2023-03-18T11:01:34.853Z,50.63
2023-03-18T11:02:34.820Z,50.63
2023-03-18T11:03:34.726Z,33.75
2023-03-18T11:04:34.695Z,45.00
2023-03-18T11:05:34.898Z,33.75
2023-03-18T11:06:34.646Z,45.00
2023-03-18T11:07:34.637Z,22.50
2023-03-18T11:08:34.640Z,50.63
2023-03-18T11:09:34.581Z,28.13
2023-03-18T11:10:35.107Z,50.63
2023-03-18T11:11:34.603Z,50.63
2023-03-18T11:12:34.520Z,39.38
2023-03-18T11:13:34.517Z,28.13
2023-03-18T11:14:34.469Z,22.50
2023-03-18T11:15:34.449Z,50.63
2023-03-18T11:16:34.569Z,28.13
2023-03-18T11:17:34.405Z,50.63
2023-03-18T11:18:34.384Z,33.75
2023-03-18T11:19:34.358Z,22.50
2023-03-18T11:20:34.868Z,16.88
2023-03-18T11:21:34.336Z,16.88
2023-03-18T11:22:34.294Z,39.38
2023-03-18T11:23:34.267Z,45.00
2023-03-18T11:24:34.248Z,28.13
2023-03-18T11:25:34.225Z,28.13
2023-03-18T11:26:34.205Z,50.63
2023-03-18T11:27:34.179Z,50.63
2023-03-18T11:28:34.160Z,50.63
2023-03-18T11:29:34.150Z,50.63
2023-03-18T11:30:35.128Z,50.63
2023-03-18T11:31:34.185Z,50.63
2023-03-18T11:32:34.237Z,50.63
2023-03-18T11:33:34.048Z,50.63
2023-03-18T11:34:34.024Z,50.63
2023-03-18T11:35:34.120Z,50.63
2023-03-18T11:36:33.981Z,33.75
2023-03-18T11:37:33.988Z,50.63
2023-03-18T11:38:33.952Z,50.63
2023-03-18T11:39:33.912Z,50.63
2023-03-18T11:40:34.214Z,50.63
2023-03-18T11:41:33.866Z,16.88
2023-03-18T11:42:33.855Z,50.63
2023-03-18T11:43:33.825Z,50.63
2023-03-18T11:44:33.805Z,50.63
2023-03-18T11:45:33.785Z,45.00
2023-03-18T11:46:33.838Z,50.63
2023-03-18T11:47:33.733Z,56.25
2023-03-18T11:48:33.717Z,50.63
2023-03-18T11:49:33.693Z,50.63
2023-03-18T11:50:34.140Z,50.63
2023-03-18T11:51:33.657Z,50.63
2023-03-18T11:52:33.633Z,50.63
2023-03-18T11:53:33.620Z,50.63
2023-03-18T11:54:33.600Z,50.63
2023-03-18T11:55:33.974Z,50.63
2023-03-18T11:56:33.552Z,50.63
2023-03-18T11:57:33.512Z,50.63
2023-03-18T11:58:33.497Z,50.63
2023-03-18T11:59:33.472Z,50.63
2023-03-18T12:00:33.531Z,56.25
2023-03-18T12:01:33.439Z,56.25
2023-03-18T12:02:33.411Z,56.25
2023-03-18T12:03:33.389Z,56.25
2023-03-18T12:04:33.437Z,16.88
2023-03-18T12:05:33.706Z,50.63
2023-03-18T12:06:33.323Z,33.75
2023-03-18T12:07:33.303Z,56.25
2023-03-18T12:08:33.285Z,56.25
2023-03-18T12:09:33.279Z,56.25
2023-03-18T12:10:33.519Z,56.25
2023-03-18T12:11:33.229Z,56.25
2023-03-18T12:12:33.201Z,45.00
2023-03-18T12:13:33.174Z,50.63
2023-03-18T12:14:33.153Z,50.63
2023-03-18T12:15:33.396Z,56.25
2023-03-18T12:16:33.214Z,56.25
2023-03-18T12:17:33.085Z,56.25
2023-03-18T12:18:33.070Z,56.25
2023-03-18T12:19:33.047Z,56.25
2023-03-18T12:20:33.283Z,56.25
2023-03-18T12:21:32.998Z,56.25
2023-03-18T12:22:32.978Z,56.25
2023-03-18T12:23:32.954Z,56.25
2023-03-18T12:24:32.936Z,50.63
2023-03-18T12:25:32.972Z,50.63
2023-03-18T12:26:32.896Z,50.63
2023-03-18T12:27:32.874Z,33.75
2023-03-18T12:28:32.858Z,50.63
2023-03-18T12:29:32.844Z,45.00
2023-03-18T12:30:33.100Z,22.50
2023-03-18T12:31:32.813Z,45.00
2023-03-18T12:32:32.825Z,22.50
2023-03-18T12:33:32.745Z,16.88
2023-03-18T12:34:32.728Z,16.88
2023-03-18T12:35:32.959Z,45.00
2023-03-18T12:36:32.683Z,45.00
2023-03-18T12:37:32.665Z,50.63
2023-03-18T12:38:32.637Z,45.00
2023-03-18T12:39:32.618Z,56.25
2023-03-18T12:40:32.862Z,56.25
2023-03-18T12:41:32.596Z,45.00
2023-03-18T12:42:32.561Z,56.25
2023-03-18T12:43:32.533Z,50.63
2023-03-18T12:44:32.512Z,56.25
2023-03-18T12:45:32.680Z,50.63
2023-03-18T12:46:32.468Z,56.25
2023-03-18T12:47:32.467Z,56.25
2023-03-18T12:48:43.748Z,56.25
2023-03-18T12:49:32.404Z,50.63
2023-03-18T12:50:32.393Z,45.00
2023-03-18T12:51:32.357Z,16.88
2023-03-18T12:52:32.343Z,16.88
2023-03-18T12:53:32.315Z,39.38
2023-03-18T12:54:32.296Z,50.63
2023-03-18T12:55:32.615Z,50.63
2023-03-18T12:56:32.261Z,50.63
2023-03-18T12:57:32.251Z,50.63
2023-03-18T12:58:32.217Z,22.50
2023-03-18T12:59:32.202Z,28.13
2023-03-18T13:00:32.570Z,22.50
2023-03-18T13:01:32.293Z,16.88
2023-03-18T13:02:32.179Z,16.88
2023-03-18T13:03:32.130Z,33.75
2023-03-18T13:04:32.083Z,50.63
2023-03-18T13:05:32.381Z,45.00
2023-03-18T13:06:32.038Z,50.63
2023-03-18T13:07:32.021Z,50.63
2023-03-18T13:08:31.998Z,45.00